aviador You're here:

SCDA Decoded Metar

IQUIQUE in CHILE
Report Time2017-10-17 11:00:00
UTC Time2017-10-17 11:22:55
Flight Rules mvfr MVFR
Wind180° at 09 kt
W.Decomp.*RWY 19: 8.9 kt HW 1.1 kt LCW
W.Rank180° ranks 7
Current wind is above 180° avg. (6.9)
Visibility9999 m
Phenomena:N/A
Clouds:Broken 025 Hf
Expected CloudBase > 1,600 ft AGL from Temp-Dew spread
Ceiling2,500 ft
Temp15°C (ISA 0)
Dew Point11°C (77% RH)
AAT12.1°C
QNH1013 hPa
Density Alt387 ft
Elevation171 ft
Report Wrong Elevation
Raw Report
SCDA 171100Z 18009KT 9999 BKN025 15/11 Q1013=

Extra information for SCDA:More info

Metar Taf Metar & Taf Last 4 Metars F.Rules Stats Wind Profile Meteogram Temp Stats Airport Information Weather charts Add Link Nearby VenuesMetar ALERT Operation Metar Decoded Social comments